sensor_id;sensor_type;location;lat;lon;timestamp;P1;durP1;ratioP1;P2;durP2;ratioP2
16642;SDS011;8435;52.184;5.406;2023-03-01T00:00:53;7.80;;;7.00;;
16642;SDS011;8435;52.184;5.406;2023-03-01T00:03:21;6.83;;;6.17;;
16642;SDS011;8435;52.184;5.406;2023-03-01T00:05:49;7.87;;;7.13;;
16642;SDS011;8435;52.184;5.406;2023-03-01T00:08:18;7.03;;;6.33;;
16642;SDS011;8435;52.184;5.406;2023-03-01T00:10:45;7.40;;;6.70;;
16642;SDS011;8435;52.184;5.406;2023-03-01T00:13:12;8.17;;;7.37;;
16642;SDS011;8435;52.184;5.406;2023-03-01T00:15:39;7.40;;;6.67;;
16642;SDS011;8435;52.184;5.406;2023-03-01T00:18:06;7.50;;;6.80;;
16642;SDS011;8435;52.184;5.406;2023-03-01T00:20:34;8.17;;;7.37;;
16642;SDS011;8435;52.184;5.406;2023-03-01T00:23:01;9.00;;;7.40;;
16642;SDS011;8435;52.184;5.406;2023-03-01T00:25:28;8.23;;;7.37;;
16642;SDS011;8435;52.184;5.406;2023-03-01T00:27:55;8.37;;;7.57;;
16642;SDS011;8435;52.184;5.406;2023-03-01T00:30:21;7.73;;;7.13;;
16642;SDS011;8435;52.184;5.406;2023-03-01T00:32:48;7.97;;;7.17;;
16642;SDS011;8435;52.184;5.406;2023-03-01T00:35:15;8.10;;;6.90;;
16642;SDS011;8435;52.184;5.406;2023-03-01T00:37:43;8.27;;;6.97;;
16642;SDS011;8435;52.184;5.406;2023-03-01T00:40:11;8.27;;;7.47;;
16642;SDS011;8435;52.184;5.406;2023-03-01T00:42:41;8.77;;;7.73;;
16642;SDS011;8435;52.184;5.406;2023-03-01T00:45:08;8.33;;;7.53;;
16642;SDS011;8435;52.184;5.406;2023-03-01T00:47:35;8.07;;;7.07;;
16642;SDS011;8435;52.184;5.406;2023-03-01T00:52:36;8.23;;;7.27;;
16642;SDS011;8435;52.184;5.406;2023-03-01T00:55:05;12.47;;;8.23;;
16642;SDS011;8435;52.184;5.406;2023-03-01T00:57:33;10.30;;;8.77;;
16642;SDS011;8435;52.184;5.406;2023-03-01T01:00:00;8.73;;;7.87;;
16642;SDS011;8435;52.184;5.406;2023-03-01T01:02:28;9.47;;;8.37;;
16642;SDS011;8435;52.184;5.406;2023-03-01T01:04:54;8.90;;;8.00;;
16642;SDS011;8435;52.184;5.406;2023-03-01T01:07:21;9.17;;;8.07;;
16642;SDS011;8435;52.184;5.406;2023-03-01T01:09:48;10.10;;;9.10;;
16642;SDS011;8435;52.184;5.406;2023-03-01T01:12:16;10.17;;;8.73;;
16642;SDS011;8435;52.184;5.406;2023-03-01T01:14:43;10.40;;;9.00;;
16642;SDS011;8435;52.184;5.406;2023-03-01T01:17:11;10.30;;;9.27;;
16642;SDS011;8435;52.184;5.406;2023-03-01T01:19:38;9.67;;;8.77;;
16642;SDS011;8435;52.184;5.406;2023-03-01T01:22:05;10.27;;;9.27;;
16642;SDS011;8435;52.184;5.406;2023-03-01T01:24:32;12.47;;;9.73;;
16642;SDS011;8435;52.184;5.406;2023-03-01T01:26:58;10.23;;;9.20;;
16642;SDS011;8435;52.184;5.406;2023-03-01T01:29:31;9.50;;;8.70;;
16642;SDS011;8435;52.184;5.406;2023-03-01T01:31:57;10.83;;;9.83;;
16642;SDS011;8435;52.184;5.406;2023-03-01T01:34:24;12.10;;;9.70;;
16642;SDS011;8435;52.184;5.406;2023-03-01T01:36:52;9.97;;;8.77;;
16642;SDS011;8435;52.184;5.406;2023-03-01T01:39:19;13.93;;;10.00;;
16642;SDS011;8435;52.184;5.406;2023-03-01T01:41:46;10.43;;;8.90;;
16642;SDS011;8435;52.184;5.406;2023-03-01T01:44:15;10.47;;;8.87;;
16642;SDS011;8435;52.184;5.406;2023-03-01T01:46:46;9.63;;;8.50;;
16642;SDS011;8435;52.184;5.406;2023-03-01T01:49:19;10.73;;;9.67;;
16642;SDS011;8435;52.184;5.406;2023-03-01T01:51:57;10.90;;;9.80;;
16642;SDS011;8435;52.184;5.406;2023-03-01T01:54:37;11.23;;;9.53;;
16642;SDS011;8435;52.184;5.406;2023-03-01T01:57:10;10.20;;;9.10;;
16642;SDS011;8435;52.184;5.406;2023-03-01T01:59:40;10.83;;;9.83;;
16642;SDS011;8435;52.184;5.406;2023-03-01T02:02:12;10.27;;;9.27;;
16642;SDS011;8435;52.184;5.406;2023-03-01T02:04:40;11.57;;;10.13;;
16642;SDS011;8435;52.184;5.406;2023-03-01T02:07:09;10.60;;;9.50;;
16642;SDS011;8435;52.184;5.406;2023-03-01T02:09:40;12.97;;;10.57;;
16642;SDS011;8435;52.184;5.406;2023-03-01T02:12:12;11.73;;;10.53;;
16642;SDS011;8435;52.184;5.406;2023-03-01T02:14:41;10.77;;;9.67;;
16642;SDS011;8435;52.184;5.406;2023-03-01T02:17:13;11.00;;;9.87;;
16642;SDS011;8435;52.184;5.406;2023-03-01T02:19:44;10.90;;;9.80;;
16642;SDS011;8435;52.184;5.406;2023-03-01T02:22:20;11.80;;;10.60;;
16642;SDS011;8435;52.184;5.406;2023-03-01T02:24:52;11.03;;;9.93;;
16642;SDS011;8435;52.184;5.406;2023-03-01T02:27:29;12.40;;;10.83;;
16642;SDS011;8435;52.184;5.406;2023-03-01T02:30:04;10.33;;;9.43;;
16642;SDS011;8435;52.184;5.406;2023-03-01T02:32:32;11.57;;;10.33;;
16642;SDS011;8435;52.184;5.406;2023-03-01T02:34:59;11.77;;;10.57;;
16642;SDS011;8435;52.184;5.406;2023-03-01T02:37:26;11.83;;;10.67;;
16642;SDS011;8435;52.184;5.406;2023-03-01T02:39:55;13.30;;;10.43;;
16642;SDS011;8435;52.184;5.406;2023-03-01T02:42:26;12.13;;;10.80;;
16642;SDS011;8435;52.184;5.406;2023-03-01T02:44:56;13.10;;;9.93;;
16642;SDS011;8435;52.184;5.406;2023-03-01T02:47:24;11.67;;;10.43;;
16642;SDS011;8435;52.184;5.406;2023-03-01T02:49:53;12.43;;;10.60;;
16642;SDS011;8435;52.184;5.406;2023-03-01T02:52:27;11.13;;;9.87;;
16642;SDS011;8435;52.184;5.406;2023-03-01T02:55:10;12.43;;;10.63;;
16642;SDS011;8435;52.184;5.406;2023-03-01T02:57:39;12.33;;;11.13;;
16642;SDS011;8435;52.184;5.406;2023-03-01T03:00:11;12.67;;;10.43;;
16642;SDS011;8435;52.184;5.406;2023-03-01T03:02:45;12.80;;;11.20;;
16642;SDS011;8435;52.184;5.406;2023-03-01T03:05:14;13.50;;;10.10;;
16642;SDS011;8435;52.184;5.406;2023-03-01T03:07:44;12.27;;;10.93;;
16642;SDS011;8435;52.184;5.406;2023-03-01T03:10:13;13.60;;;11.70;;
16642;SDS011;8435;52.184;5.406;2023-03-01T03:12:41;11.67;;;10.53;;
16642;SDS011;8435;52.184;5.406;2023-03-01T03:15:09;14.20;;;11.87;;
16642;SDS011;8435;52.184;5.406;2023-03-01T03:17:38;11.87;;;10.67;;
16642;SDS011;8435;52.184;5.406;2023-03-01T03:20:07;11.67;;;10.47;;
16642;SDS011;8435;52.184;5.406;2023-03-01T03:22:36;13.47;;;11.53;;
16642;SDS011;8435;52.184;5.406;2023-03-01T03:25:04;13.17;;;11.47;;
16642;SDS011;8435;52.184;5.406;2023-03-01T03:27:35;13.07;;;11.70;;
16642;SDS011;8435;52.184;5.406;2023-03-01T03:30:03;13.57;;;11.93;;
16642;SDS011;8435;52.184;5.406;2023-03-01T03:32:33;14.40;;;11.77;;
16642;SDS011;8435;52.184;5.406;2023-03-01T03:35:01;12.20;;;10.93;;
16642;SDS011;8435;52.184;5.406;2023-03-01T03:37:35;12.10;;;10.90;;
16642;SDS011;8435;52.184;5.406;2023-03-01T03:40:19;12.20;;;10.90;;
16642;SDS011;8435;52.184;5.406;2023-03-01T03:42:46;12.77;;;11.37;;
16642;SDS011;8435;52.184;5.406;2023-03-01T03:45:16;12.33;;;11.07;;
16642;SDS011;8435;52.184;5.406;2023-03-01T03:47:43;14.40;;;11.87;;
16642;SDS011;8435;52.184;5.406;2023-03-01T03:50:11;13.00;;;10.77;;
16642;SDS011;8435;52.184;5.406;2023-03-01T03:52:41;13.93;;;12.47;;
16642;SDS011;8435;52.184;5.406;2023-03-01T03:55:09;13.07;;;11.30;;
16642;SDS011;8435;52.184;5.406;2023-03-01T03:57:37;11.53;;;10.23;;
16642;SDS011;8435;52.184;5.406;2023-03-01T04:00:06;10.93;;;9.77;;
16642;SDS011;8435;52.184;5.406;2023-03-01T04:02:37;12.67;;;10.97;;
16642;SDS011;8435;52.184;5.406;2023-03-01T04:05:05;12.37;;;11.07;;
16642;SDS011;8435;52.184;5.406;2023-03-01T04:07:33;12.47;;;11.27;;
16642;SDS011;8435;52.184;5.406;2023-03-01T04:10:01;13.63;;;11.23;;
16642;SDS011;8435;52.184;5.406;2023-03-01T04:12:28;11.03;;;9.93;;
16642;SDS011;8435;52.184;5.406;2023-03-01T04:14:55;11.00;;;9.90;;
16642;SDS011;8435;52.184;5.406;2023-03-01T04:17:21;11.87;;;10.30;;
16642;SDS011;8435;52.184;5.406;2023-03-01T04:19:51;12.00;;;10.80;;
16642;SDS011;8435;52.184;5.406;2023-03-01T04:22:18;12.43;;;11.10;;
16642;SDS011;8435;52.184;5.406;2023-03-01T04:24:45;14.63;;;11.80;;
16642;SDS011;8435;52.184;5.406;2023-03-01T04:27:13;13.00;;;11.47;;
16642;SDS011;8435;52.184;5.406;2023-03-01T04:29:40;13.30;;;11.90;;
16642;SDS011;8435;52.184;5.406;2023-03-01T04:32:06;15.23;;;11.30;;
16642;SDS011;8435;52.184;5.406;2023-03-01T04:34:33;12.07;;;10.87;;
16642;SDS011;8435;52.184;5.406;2023-03-01T04:37:00;11.43;;;10.33;;
16642;SDS011;8435;52.184;5.406;2023-03-01T04:39:27;11.80;;;10.60;;
16642;SDS011;8435;52.184;5.406;2023-03-01T04:41:54;11.93;;;10.63;;
16642;SDS011;8435;52.184;5.406;2023-03-01T04:44:22;12.03;;;10.83;;
16642;SDS011;8435;52.184;5.406;2023-03-01T04:46:48;11.30;;;10.10;;
16642;SDS011;8435;52.184;5.406;2023-03-01T04:49:16;11.87;;;10.67;;
16642;SDS011;8435;52.184;5.406;2023-03-01T04:51:42;12.80;;;11.07;;
16642;SDS011;8435;52.184;5.406;2023-03-01T04:54:09;11.77;;;10.57;;
16642;SDS011;8435;52.184;5.406;2023-03-01T04:56:36;12.20;;;11.00;;
16642;SDS011;8435;52.184;5.406;2023-03-01T04:59:04;11.63;;;10.03;;
16642;SDS011;8435;52.184;5.406;2023-03-01T05:01:34;13.07;;;10.90;;
16642;SDS011;8435;52.184;5.406;2023-03-01T05:04:01;12.40;;;11.10;;
16642;SDS011;8435;52.184;5.406;2023-03-01T05:06:30;12.03;;;10.77;;
16642;SDS011;8435;52.184;5.406;2023-03-01T05:08:58;11.73;;;10.23;;
16642;SDS011;8435;52.184;5.406;2023-03-01T05:11:24;13.53;;;10.93;;
16642;SDS011;8435;52.184;5.406;2023-03-01T05:13:53;12.37;;;9.80;;
16642;SDS011;8435;52.184;5.406;2023-03-01T05:16:20;11.97;;;10.50;;
16642;SDS011;8435;52.184;5.406;2023-03-01T05:18:51;11.77;;;10.57;;
16642;SDS011;8435;52.184;5.406;2023-03-01T05:21:20;12.23;;;10.90;;
16642;SDS011;8435;52.184;5.406;2023-03-01T05:23:47;13.17;;;11.67;;
16642;SDS011;8435;52.184;5.406;2023-03-01T05:26:15;12.87;;;10.87;;
16642;SDS011;8435;52.184;5.406;2023-03-01T05:28:43;12.80;;;11.03;;
16642;SDS011;8435;52.184;5.406;2023-03-01T05:31:10;13.60;;;11.50;;
16642;SDS011;8435;52.184;5.406;2023-03-01T05:33:37;10.97;;;9.87;;
16642;SDS011;8435;52.184;5.406;2023-03-01T05:36:07;13.33;;;11.77;;
16642;SDS011;8435;52.184;5.406;2023-03-01T05:38:35;14.73;;;12.13;;
16642;SDS011;8435;52.184;5.406;2023-03-01T05:41:02;14.40;;;11.17;;
16642;SDS011;8435;52.184;5.406;2023-03-01T05:43:29;13.50;;;11.03;;
16642;SDS011;8435;52.184;5.406;2023-03-01T05:46:01;13.17;;;11.63;;
16642;SDS011;8435;52.184;5.406;2023-03-01T05:48:28;13.47;;;11.80;;
16642;SDS011;8435;52.184;5.406;2023-03-01T05:50:57;13.47;;;12.00;;
16642;SDS011;8435;52.184;5.406;2023-03-01T05:53:27;13.07;;;11.67;;
16642;SDS011;8435;52.184;5.406;2023-03-01T05:55:54;14.13;;;12.17;;
16642;SDS011;8435;52.184;5.406;2023-03-01T05:58:21;14.53;;;12.87;;
16642;SDS011;8435;52.184;5.406;2023-03-01T06:00:49;21.60;;;17.40;;
16642;SDS011;8435;52.184;5.406;2023-03-01T06:03:16;19.67;;;16.60;;
16642;SDS011;8435;52.184;5.406;2023-03-01T06:05:44;16.57;;;13.87;;
16642;SDS011;8435;52.184;5.406;2023-03-01T06:08:11;14.63;;;12.80;;
16642;SDS011;8435;52.184;5.406;2023-03-01T06:10:40;17.57;;;13.23;;
16642;SDS011;8435;52.184;5.406;2023-03-01T06:13:07;15.70;;;13.80;;
16642;SDS011;8435;52.184;5.406;2023-03-01T06:15:34;18.60;;;14.60;;
16642;SDS011;8435;52.184;5.406;2023-03-01T06:18:00;15.97;;;13.57;;
16642;SDS011;8435;52.184;5.406;2023-03-01T06:20:28;14.47;;;12.90;;
16642;SDS011;8435;52.184;5.406;2023-03-01T06:22:55;17.87;;;13.87;;
16642;SDS011;8435;52.184;5.406;2023-03-01T06:25:23;17.80;;;13.90;;
16642;SDS011;8435;52.184;5.406;2023-03-01T06:27:52;16.70;;;14.07;;
16642;SDS011;8435;52.184;5.406;2023-03-01T06:30:20;15.97;;;13.73;;
16642;SDS011;8435;52.184;5.406;2023-03-01T06:32:49;15.93;;;13.53;;
16642;SDS011;8435;52.184;5.406;2023-03-01T06:35:16;19.83;;;13.83;;
16642;SDS011;8435;52.184;5.406;2023-03-01T06:37:44;18.93;;;14.20;;
16642;SDS011;8435;52.184;5.406;2023-03-01T06:40:12;21.53;;;15.40;;
16642;SDS011;8435;52.184;5.406;2023-03-01T06:42:40;17.63;;;14.67;;
16642;SDS011;8435;52.184;5.406;2023-03-01T06:45:10;15.93;;;14.23;;
16642;SDS011;8435;52.184;5.406;2023-03-01T06:47:37;17.27;;;14.67;;
16642;SDS011;8435;52.184;5.406;2023-03-01T06:50:07;21.43;;;14.93;;
16642;SDS011;8435;52.184;5.406;2023-03-01T06:52:35;19.07;;;15.13;;
16642;SDS011;8435;52.184;5.406;2023-03-01T06:55:02;19.40;;;15.67;;
16642;SDS011;8435;52.184;5.406;2023-03-01T06:57:29;19.67;;;16.87;;
16642;SDS011;8435;52.184;5.406;2023-03-01T06:59:56;20.90;;;17.07;;
16642;SDS011;8435;52.184;5.406;2023-03-01T07:02:24;18.60;;;15.63;;
16642;SDS011;8435;52.184;5.406;2023-03-01T07:04:51;20.13;;;15.70;;
16642;SDS011;8435;52.184;5.406;2023-03-01T07:07:18;19.57;;;15.97;;
16642;SDS011;8435;52.184;5.406;2023-03-01T07:09:45;21.67;;;16.27;;
16642;SDS011;8435;52.184;5.406;2023-03-01T07:12:12;19.97;;;16.57;;
16642;SDS011;8435;52.184;5.406;2023-03-01T07:14:39;20.57;;;16.20;;
16642;SDS011;8435;52.184;5.406;2023-03-01T07:17:06;20.77;;;15.80;;
16642;SDS011;8435;52.184;5.406;2023-03-01T07:19:34;19.30;;;16.00;;
16642;SDS011;8435;52.184;5.406;2023-03-01T07:22:01;18.73;;;14.73;;
16642;SDS011;8435;52.184;5.406;2023-03-01T07:24:29;20.83;;;15.87;;
16642;SDS011;8435;52.184;5.406;2023-03-01T07:26:57;19.93;;;15.60;;
16642;SDS011;8435;52.184;5.406;2023-03-01T07:29:24;19.70;;;15.53;;
16642;SDS011;8435;52.184;5.406;2023-03-01T07:31:51;21.07;;;16.03;;
16642;SDS011;8435;52.184;5.406;2023-03-01T07:34:18;22.90;;;16.00;;
16642;SDS011;8435;52.184;5.406;2023-03-01T07:36:46;21.07;;;16.70;;
16642;SDS011;8435;52.184;5.406;2023-03-01T07:39:12;19.83;;;15.87;;
16642;SDS011;8435;52.184;5.406;2023-03-01T07:41:42;18.33;;;15.50;;
16642;SDS011;8435;52.184;5.406;2023-03-01T07:44:09;20.20;;;16.27;;
16642;SDS011;8435;52.184;5.406;2023-03-01T07:46:36;19.33;;;16.00;;
16642;SDS011;8435;52.184;5.406;2023-03-01T07:49:02;17.97;;;15.00;;
16642;SDS011;8435;52.184;5.406;2023-03-01T07:51:29;18.93;;;15.80;;
16642;SDS011;8435;52.184;5.406;2023-03-01T07:53:57;18.57;;;15.00;;
16642;SDS011;8435;52.184;5.406;2023-03-01T07:56:24;18.27;;;15.77;;
16642;SDS011;8435;52.184;5.406;2023-03-01T07:58:51;16.80;;;14.40;;
16642;SDS011;8435;52.184;5.406;2023-03-01T08:01:19;16.10;;;14.37;;
16642;SDS011;8435;52.184;5.406;2023-03-01T08:03:48;16.10;;;14.40;;
16642;SDS011;8435;52.184;5.406;2023-03-01T08:06:16;17.00;;;13.70;;
16642;SDS011;8435;52.184;5.406;2023-03-01T08:08:43;15.20;;;13.60;;
16642;SDS011;8435;52.184;5.406;2023-03-01T08:11:13;17.47;;;14.13;;
16642;SDS011;8435;52.184;5.406;2023-03-01T08:13:40;14.27;;;12.77;;
16642;SDS011;8435;52.184;5.406;2023-03-01T08:16:08;14.50;;;13.00;;
16642;SDS011;8435;52.184;5.406;2023-03-01T08:18:37;13.97;;;12.03;;
16642;SDS011;8435;52.184;5.406;2023-03-01T08:21:05;12.47;;;11.23;;
16642;SDS011;8435;52.184;5.406;2023-03-01T08:23:33;14.03;;;11.30;;
16642;SDS011;8435;52.184;5.406;2023-03-01T08:26:04;12.40;;;11.10;;
16642;SDS011;8435;52.184;5.406;2023-03-01T08:28:33;12.63;;;10.63;;
16642;SDS011;8435;52.184;5.406;2023-03-01T08:31:00;10.70;;;9.70;;
16642;SDS011;8435;52.184;5.406;2023-03-01T08:33:27;11.37;;;10.27;;
16642;SDS011;8435;52.184;5.406;2023-03-01T08:36:01;10.60;;;9.60;;
16642;SDS011;8435;52.184;5.406;2023-03-01T08:38:29;9.47;;;8.57;;
16642;SDS011;8435;52.184;5.406;2023-03-01T08:40:58;10.27;;;9.27;;
16642;SDS011;8435;52.184;5.406;2023-03-01T08:43:26;9.90;;;8.90;;
16642;SDS011;8435;52.184;5.406;2023-03-01T08:45:54;8.90;;;8.00;;
16642;SDS011;8435;52.184;5.406;2023-03-01T08:48:21;8.27;;;7.57;;
16642;SDS011;8435;52.184;5.406;2023-03-01T08:50:47;9.03;;;8.10;;
16642;SDS011;8435;52.184;5.406;2023-03-01T08:53:14;8.63;;;7.83;;
16642;SDS011;8435;52.184;5.406;2023-03-01T08:55:44;8.83;;;7.93;;
16642;SDS011;8435;52.184;5.406;2023-03-01T08:58:11;9.37;;;7.50;;
16642;SDS011;8435;52.184;5.406;2023-03-01T09:00:37;8.93;;;7.60;;
16642;SDS011;8435;52.184;5.406;2023-03-01T09:03:06;9.57;;;8.63;;
16642;SDS011;8435;52.184;5.406;2023-03-01T09:05:34;8.90;;;7.80;;
16642;SDS011;8435;52.184;5.406;2023-03-01T09:08:01;7.97;;;7.17;;
16642;SDS011;8435;52.184;5.406;2023-03-01T09:10:28;8.77;;;7.97;;
16642;SDS011;8435;52.184;5.406;2023-03-01T09:12:55;7.50;;;6.70;;
16642;SDS011;8435;52.184;5.406;2023-03-01T09:15:22;7.90;;;7.13;;
16642;SDS011;8435;52.184;5.406;2023-03-01T09:17:48;7.67;;;6.87;;
16642;SDS011;8435;52.184;5.406;2023-03-01T09:20:18;7.57;;;6.60;;
16642;SDS011;8435;52.184;5.406;2023-03-01T09:22:44;6.60;;;5.93;;
16642;SDS011;8435;52.184;5.406;2023-03-01T09:25:11;6.93;;;5.30;;
16642;SDS011;8435;52.184;5.406;2023-03-01T09:27:38;6.67;;;5.53;;
16642;SDS011;8435;52.184;5.406;2023-03-01T09:30:06;6.07;;;5.27;;
16642;SDS011;8435;52.184;5.406;2023-03-01T09:32:33;6.70;;;6.10;;
16642;SDS011;8435;52.184;5.406;2023-03-01T09:35:00;7.10;;;5.70;;
16642;SDS011;8435;52.184;5.406;2023-03-01T09:37:32;5.90;;;5.40;;
16642;SDS011;8435;52.184;5.406;2023-03-01T09:40:00;5.97;;;5.40;;
16642;SDS011;8435;52.184;5.406;2023-03-01T09:42:28;6.77;;;5.33;;
16642;SDS011;8435;52.184;5.406;2023-03-01T09:44:58;6.50;;;5.20;;
16642;SDS011;8435;52.184;5.406;2023-03-01T09:47:28;6.83;;;5.50;;
16642;SDS011;8435;52.184;5.406;2023-03-01T09:49:58;6.27;;;5.10;;
16642;SDS011;8435;52.184;5.406;2023-03-01T09:52:33;5.47;;;4.97;;
16642;SDS011;8435;52.184;5.406;2023-03-01T09:55:10;5.60;;;5.10;;
16642;SDS011;8435;52.184;5.406;2023-03-01T09:57:41;6.60;;;5.10;;
16642;SDS011;8435;52.184;5.406;2023-03-01T10:00:16;6.33;;;4.80;;
16642;SDS011;8435;52.184;5.406;2023-03-01T10:02:52;4.30;;;3.90;;
16642;SDS011;8435;52.184;5.406;2023-03-01T10:05:31;5.63;;;4.17;;
16642;SDS011;8435;52.184;5.406;2023-03-01T10:10:56;5.03;;;4.53;;
16642;SDS011;8435;52.184;5.406;2023-03-01T10:13:24;5.10;;;4.60;;
16642;SDS011;8435;52.184;5.406;2023-03-01T10:15:56;5.17;;;4.07;;
16642;SDS011;8435;52.184;5.406;2023-03-01T10:18:28;5.10;;;4.60;;
16642;SDS011;8435;52.184;5.406;2023-03-01T10:20:58;5.93;;;5.10;;
16642;SDS011;8435;52.184;5.406;2023-03-01T10:23:29;4.93;;;4.50;;
16642;SDS011;8435;52.184;5.406;2023-03-01T10:26:09;5.57;;;4.87;;
16642;SDS011;8435;52.184;5.406;2023-03-01T10:28:50;7.23;;;5.20;;
16642;SDS011;8435;52.184;5.406;2023-03-01T10:31:25;4.37;;;3.97;;
16642;SDS011;8435;52.184;5.406;2023-03-01T10:34:02;5.13;;;4.60;;
16642;SDS011;8435;52.184;5.406;2023-03-01T10:36:28;6.83;;;5.20;;
16642;SDS011;8435;52.184;5.406;2023-03-01T10:39:00;7.50;;;6.20;;
16642;SDS011;8435;52.184;5.406;2023-03-01T10:41:45;7.83;;;6.93;;
16642;SDS011;8435;52.184;5.406;2023-03-01T10:47:16;9.63;;;7.13;;
16642;SDS011;8435;52.184;5.406;2023-03-01T10:49:53;8.03;;;5.43;;
16642;SDS011;8435;52.184;5.406;2023-03-01T10:52:26;5.53;;;4.10;;
16642;SDS011;8435;52.184;5.406;2023-03-01T10:54:59;4.60;;;3.67;;
16642;SDS011;8435;52.184;5.406;2023-03-01T10:57:31;3.50;;;3.17;;
16642;SDS011;8435;52.184;5.406;2023-03-01T11:03:00;4.67;;;3.33;;
16642;SDS011;8435;52.184;5.406;2023-03-01T11:05:35;5.30;;;3.00;;
16642;SDS011;8435;52.184;5.406;2023-03-01T11:08:02;3.83;;;3.10;;
16642;SDS011;8435;52.184;5.406;2023-03-01T11:10:31;3.97;;;2.80;;
16642;SDS011;8435;52.184;5.406;2023-03-01T11:13:07;3.03;;;2.60;;
16642;SDS011;8435;52.184;5.406;2023-03-01T11:15:34;3.00;;;2.70;;
16642;SDS011;8435;52.184;5.406;2023-03-01T11:18:02;3.40;;;2.87;;
16642;SDS011;8435;52.184;5.406;2023-03-01T11:20:33;5.10;;;2.90;;
16642;SDS011;8435;52.184;5.406;2023-03-01T11:23:03;3.03;;;2.80;;
16642;SDS011;8435;52.184;5.406;2023-03-01T11:25:36;3.63;;;3.10;;
16642;SDS011;8435;52.184;5.406;2023-03-01T11:28:05;2.70;;;2.47;;
16642;SDS011;8435;52.184;5.406;2023-03-01T11:30:38;2.73;;;2.53;;
16642;SDS011;8435;52.184;5.406;2023-03-01T11:33:12;2.83;;;2.63;;
16642;SDS011;8435;52.184;5.406;2023-03-01T11:35:46;3.20;;;2.90;;
16642;SDS011;8435;52.184;5.406;2023-03-01T11:38:21;4.53;;;2.83;;
16642;SDS011;8435;52.184;5.406;2023-03-01T11:40:51;3.03;;;2.73;;
16642;SDS011;8435;52.184;5.406;2023-03-01T11:43:26;2.87;;;2.53;;
16642;SDS011;8435;52.184;5.406;2023-03-01T11:46:18;3.30;;;3.00;;
16642;SDS011;8435;52.184;5.406;2023-03-01T11:49:13;2.97;;;2.67;;
16642;SDS011;8435;52.184;5.406;2023-03-01T11:52:03;3.10;;;2.80;;
16642;SDS011;8435;52.184;5.406;2023-03-01T11:54:41;2.40;;;2.20;;
16642;SDS011;8435;52.184;5.406;2023-03-01T11:57:23;2.93;;;2.67;;
16642;SDS011;8435;52.184;5.406;2023-03-01T12:00:05;2.67;;;2.47;;
16642;SDS011;8435;52.184;5.406;2023-03-01T12:02:54;3.17;;;2.87;;
16642;SDS011;8435;52.184;5.406;2023-03-01T12:08:55;4.57;;;2.90;;
16642;SDS011;8435;52.184;5.406;2023-03-01T12:11:35;5.00;;;2.93;;
16642;SDS011;8435;52.184;5.406;2023-03-01T12:14:21;3.37;;;3.07;;
16642;SDS011;8435;52.184;5.406;2023-03-01T12:17:14;3.80;;;2.83;;
16642;SDS011;8435;52.184;5.406;2023-03-01T12:22:44;3.40;;;3.10;;
16642;SDS011;8435;52.184;5.406;2023-03-01T12:25:28;3.33;;;3.03;;
16642;SDS011;8435;52.184;5.406;2023-03-01T12:28:14;4.43;;;3.30;;
16642;SDS011;8435;52.184;5.406;2023-03-01T12:30:54;3.97;;;3.20;;
16642;SDS011;8435;52.184;5.406;2023-03-01T12:33:36;3.53;;;3.23;;
16642;SDS011;8435;52.184;5.406;2023-03-01T12:36:21;4.23;;;3.27;;
16642;SDS011;8435;52.184;5.406;2023-03-01T12:38:59;4.30;;;3.30;;
16642;SDS011;8435;52.184;5.406;2023-03-01T12:41:40;4.13;;;3.73;;
16642;SDS011;8435;52.184;5.406;2023-03-01T12:44:22;3.33;;;3.03;;
16642;SDS011;8435;52.184;5.406;2023-03-01T12:47:02;4.07;;;3.03;;
16642;SDS011;8435;52.184;5.406;2023-03-01T12:49:37;3.83;;;2.90;;
16642;SDS011;8435;52.184;5.406;2023-03-01T12:52:13;3.63;;;3.33;;
16642;SDS011;8435;52.184;5.406;2023-03-01T12:54:45;3.40;;;3.10;;
16642;SDS011;8435;52.184;5.406;2023-03-01T12:57:15;3.93;;;3.30;;
16642;SDS011;8435;52.184;5.406;2023-03-01T12:59:49;3.10;;;2.80;;
16642;SDS011;8435;52.184;5.406;2023-03-01T13:02:31;3.40;;;3.10;;
16642;SDS011;8435;52.184;5.406;2023-03-01T13:05:10;3.40;;;2.90;;
16642;SDS011;8435;52.184;5.406;2023-03-01T13:07:51;3.33;;;3.03;;
16642;SDS011;8435;52.184;5.406;2023-03-01T13:10:26;3.17;;;2.67;;
16642;SDS011;8435;52.184;5.406;2023-03-01T13:13:08;3.40;;;3.10;;
16642;SDS011;8435;52.184;5.406;2023-03-01T13:15:39;4.00;;;3.60;;
16642;SDS011;8435;52.184;5.406;2023-03-01T13:21:00;3.53;;;3.10;;
16642;SDS011;8435;52.184;5.406;2023-03-01T13:23:30;3.37;;;3.07;;
16642;SDS011;8435;52.184;5.406;2023-03-01T13:26:01;3.10;;;2.80;;
16642;SDS011;8435;52.184;5.406;2023-03-01T13:28:49;3.00;;;2.73;;
16642;SDS011;8435;52.184;5.406;2023-03-01T13:34:41;3.23;;;2.90;;
16642;SDS011;8435;52.184;5.406;2023-03-01T13:37:10;3.80;;;2.87;;
16642;SDS011;8435;52.184;5.406;2023-03-01T13:39:54;3.10;;;2.87;;
16642;SDS011;8435;52.184;5.406;2023-03-01T13:45:19;4.53;;;3.00;;
16642;SDS011;8435;52.184;5.406;2023-03-01T13:47:55;3.47;;;3.10;;
16642;SDS011;8435;52.184;5.406;2023-03-01T13:50:27;3.83;;;2.87;;
16642;SDS011;8435;52.184;5.406;2023-03-01T13:53:01;2.90;;;2.60;;
16642;SDS011;8435;52.184;5.406;2023-03-01T13:55:34;3.23;;;2.93;;
16642;SDS011;8435;52.184;5.406;2023-03-01T13:58:05;5.17;;;3.30;;
16642;SDS011;8435;52.184;5.406;2023-03-01T14:00:47;4.73;;;3.33;;
16642;SDS011;8435;52.184;5.406;2023-03-01T14:03:21;3.47;;;3.17;;
16642;SDS011;8435;52.184;5.406;2023-03-01T14:06:00;3.93;;;3.43;;
16642;SDS011;8435;52.184;5.406;2023-03-01T14:08:31;3.77;;;3.33;;
16642;SDS011;8435;52.184;5.406;2023-03-01T14:14:08;4.40;;;3.43;;
16642;SDS011;8435;52.184;5.406;2023-03-01T14:16:48;2.80;;;2.60;;
16642;SDS011;8435;52.184;5.406;2023-03-01T14:19:24;3.53;;;3.10;;
16642;SDS011;8435;52.184;5.406;2023-03-01T14:21:59;3.77;;;3.10;;
16642;SDS011;8435;52.184;5.406;2023-03-01T14:24:31;3.63;;;3.30;;
16642;SDS011;8435;52.184;5.406;2023-03-01T14:27:03;2.97;;;2.77;;
16642;SDS011;8435;52.184;5.406;2023-03-01T14:29:35;3.33;;;3.00;;
16642;SDS011;8435;52.184;5.406;2023-03-01T14:32:09;3.67;;;3.07;;
16642;SDS011;8435;52.184;5.406;2023-03-01T14:34:42;4.90;;;3.60;;
16642;SDS011;8435;52.184;5.406;2023-03-01T14:37:14;4.33;;;3.57;;
16642;SDS011;8435;52.184;5.406;2023-03-01T14:39:46;4.83;;;3.47;;
16642;SDS011;8435;52.184;5.406;2023-03-01T14:42:13;3.97;;;3.03;;
16642;SDS011;8435;52.184;5.406;2023-03-01T14:44:40;3.60;;;3.10;;
16642;SDS011;8435;52.184;5.406;2023-03-01T14:47:10;3.53;;;3.23;;
16642;SDS011;8435;52.184;5.406;2023-03-01T14:49:40;3.47;;;2.90;;
16642;SDS011;8435;52.184;5.406;2023-03-01T14:52:16;3.23;;;2.93;;
16642;SDS011;8435;52.184;5.406;2023-03-01T14:54:48;3.33;;;3.03;;
16642;SDS011;8435;52.184;5.406;2023-03-01T14:57:20;3.33;;;3.03;;
16642;SDS011;8435;52.184;5.406;2023-03-01T14:59:48;3.77;;;2.93;;
16642;SDS011;8435;52.184;5.406;2023-03-01T15:02:18;3.40;;;3.10;;
16642;SDS011;8435;52.184;5.406;2023-03-01T15:04:48;3.53;;;3.00;;
16642;SDS011;8435;52.184;5.406;2023-03-01T15:07:18;3.40;;;3.10;;
16642;SDS011;8435;52.184;5.406;2023-03-01T15:09:45;4.47;;;3.23;;
16642;SDS011;8435;52.184;5.406;2023-03-01T15:15:00;4.93;;;3.43;;
16642;SDS011;8435;52.184;5.406;2023-03-01T15:17:48;3.57;;;3.27;;
16642;SDS011;8435;52.184;5.406;2023-03-01T15:20:20;3.40;;;3.10;;
16642;SDS011;8435;52.184;5.406;2023-03-01T15:22:52;4.00;;;3.70;;
16642;SDS011;8435;52.184;5.406;2023-03-01T15:25:20;3.93;;;3.37;;
16642;SDS011;8435;52.184;5.406;2023-03-01T15:27:49;4.03;;;3.30;;
16642;SDS011;8435;52.184;5.406;2023-03-01T15:30:19;3.93;;;3.50;;
16642;SDS011;8435;52.184;5.406;2023-03-01T15:32:48;4.80;;;3.73;;
16642;SDS011;8435;52.184;5.406;2023-03-01T15:35:47;4.97;;;3.57;;
16642;SDS011;8435;52.184;5.406;2023-03-01T15:38:27;3.43;;;3.13;;
16642;SDS011;8435;52.184;5.406;2023-03-01T15:40:57;4.00;;;3.30;;